Aeroporto :
LOGIN :

Iscrizione | Disclaimer

   EN    FR    IT 

 










Sommario :    VFR   VFR Marginale   IFR   IFR Intensivo   IFR Molto Intensivo
Visibilità : 
Base nubi : 
>= 8 km
>= 3000ft
5 / 8 km
1000 / 3000 ft
1500m / 5 km
500 / 1000 ft
800 / 1500m
200 / 500 ft
< 800m
< 200 ft
Simboli :   Temporali  Nebbia  Neve Forte  Precipitazioni Forti  Vento > 20 kt
SIGMETs :   Varie  Temporali  Ghiacco  Turbolenza  Onda orograficha  Ceneri Vulcaniche






- Altitudine del aeroporto : 138 ft
- Codice IATA : BIO


LEBB - Bilbao

ULTIMO METAR :
  • 271100Z 27006KT 220V300 9999 FEW018 SCT035 19/16 Q1018 RERA TEMPO 2900 RA

METARs OBSOLETI :
  • 271047Z 28007KT 240V300 9999 FEW020 BKN035 17/16 Q1018 RERA TEMPO 2900 RA
  • 271034Z 27011KT 240V300 3700 RA FEW015 SCT025 BKN035 16/15 Q1018 RERA TEMPO 6000 NSW
  • 271023Z 29008KT 240V330 9000 4000 RA FEW015 SCT025 BKN038 17/15 Q1018 RERA TEMPO 2900
  • 271010Z 29009KT 260V320 9000 FEW010 SCT019 BKN030 17/15 Q1018 RERA TEMPO 2900 RA
  • 270948Z 29008KT 260V320 4500 +RA FEW012 SCT020 BKN035 17/15 Q1018 TEMPO 2900
  • 270937Z 28010KT 240V320 3500 -RA FEW012 BKN020 BKN065 16/15 Q1017 RERA TEMPO 2900
  • 270908Z 27011KT 240V300 4500 -RA FEW015 SCT025 BKN065 17/14 Q1017 TEMPO 2900 RA
  • 270830Z 29009KT 250V320 9999 FEW025 SCT035 BKN045 17/15 Q1017 TEMPO 3000 RA

TAF TAF LEBB
Valido dal 27 a 06 ore il 28 a 06 ore UTC


270500Z 2706/2806 29009KT 9999 SCT025 BKN045 TX18/2713Z TN14/2706Z
TEMPO 2706/2718 28015G25KT
PROB40
TEMPO 2706/2712 3000 RA BKN010
PROB40
TEMPO 2800/2806 28015G25KT 3000 RA BKN010



MetMap, La meteo Aeronautica in un colpo d'occhio ! - Copyright ORBIFLY Dicembre 2007 - Disclaimer

ORBIFLY MET'MAP TEAM :

Programmazione e sviluppo : Alexandra Zaïnal
Concezione : Baudouin d'Aumeries
Supporto tecnico e logistico : Manuel Goepfert
Aiuto : Marc-Olivier Méhu
Aiuto per la traduzione : Arnaldo La Scala




FONTI E CREDITI :

   NOAA